sensor_id;sensor_type;location;lat;lon;timestamp;P1;durP1;ratioP1;P2;durP2;ratioP2
18076;SDS011;9165;45.714;11.362;2022-12-11T00:02:01;13.43;;;9.60;;
18076;SDS011;9165;45.714;11.362;2022-12-11T00:04:28;13.93;;;8.50;;
18076;SDS011;9165;45.714;11.362;2022-12-11T00:06:55;10.63;;;7.67;;
18076;SDS011;9165;45.714;11.362;2022-12-11T00:09:25;12.97;;;7.90;;
18076;SDS011;9165;45.714;11.362;2022-12-11T00:11:52;8.90;;;7.37;;
18076;SDS011;9165;45.714;11.362;2022-12-11T00:14:18;11.67;;;8.60;;
18076;SDS011;9165;45.714;11.362;2022-12-11T00:16:46;11.13;;;7.60;;
18076;SDS011;9165;45.714;11.362;2022-12-11T00:19:12;15.93;;;7.03;;
18076;SDS011;9165;45.714;11.362;2022-12-11T00:21:39;12.40;;;7.43;;
18076;SDS011;9165;45.714;11.362;2022-12-11T00:24:06;10.70;;;8.43;;
18076;SDS011;9165;45.714;11.362;2022-12-11T00:26:34;12.53;;;8.97;;
18076;SDS011;9165;45.714;11.362;2022-12-11T00:29:01;15.60;;;8.53;;
18076;SDS011;9165;45.714;11.362;2022-12-11T00:31:28;15.97;;;9.70;;
18076;SDS011;9165;45.714;11.362;2022-12-11T00:33:54;15.67;;;8.63;;
18076;SDS011;9165;45.714;11.362;2022-12-11T00:36:22;11.53;;;8.73;;
18076;SDS011;9165;45.714;11.362;2022-12-11T00:38:49;13.23;;;8.70;;
18076;SDS011;9165;45.714;11.362;2022-12-11T00:41:16;16.47;;;9.33;;
18076;SDS011;9165;45.714;11.362;2022-12-11T00:43:44;14.67;;;9.10;;
18076;SDS011;9165;45.714;11.362;2022-12-11T00:46:11;15.30;;;10.83;;
18076;SDS011;9165;45.714;11.362;2022-12-11T00:48:37;14.07;;;9.53;;
18076;SDS011;9165;45.714;11.362;2022-12-11T00:51:05;13.27;;;8.43;;
18076;SDS011;9165;45.714;11.362;2022-12-11T00:53:32;11.83;;;8.27;;
18076;SDS011;9165;45.714;11.362;2022-12-11T00:55:58;10.73;;;7.83;;
18076;SDS011;9165;45.714;11.362;2022-12-11T00:58:25;14.70;;;9.77;;
18076;SDS011;9165;45.714;11.362;2022-12-11T01:00:53;17.70;;;11.10;;
18076;SDS011;9165;45.714;11.362;2022-12-11T01:03:20;14.57;;;9.47;;
18076;SDS011;9165;45.714;11.362;2022-12-11T01:05:50;11.50;;;8.40;;
18076;SDS011;9165;45.714;11.362;2022-12-11T01:08:17;11.63;;;7.90;;
18076;SDS011;9165;45.714;11.362;2022-12-11T01:10:43;15.40;;;8.67;;
18076;SDS011;9165;45.714;11.362;2022-12-11T01:13:10;11.20;;;8.47;;
18076;SDS011;9165;45.714;11.362;2022-12-11T01:15:37;12.67;;;8.93;;
18076;SDS011;9165;45.714;11.362;2022-12-11T01:18:06;11.70;;;7.80;;
18076;SDS011;9165;45.714;11.362;2022-12-11T01:20:32;15.27;;;9.90;;
18076;SDS011;9165;45.714;11.362;2022-12-11T01:22:59;15.33;;;9.33;;
18076;SDS011;9165;45.714;11.362;2022-12-11T01:25:26;13.57;;;9.57;;
18076;SDS011;9165;45.714;11.362;2022-12-11T01:27:53;16.87;;;10.40;;
18076;SDS011;9165;45.714;11.362;2022-12-11T01:30:21;17.77;;;12.33;;
18076;SDS011;9165;45.714;11.362;2022-12-11T01:32:47;17.03;;;10.83;;
18076;SDS011;9165;45.714;11.362;2022-12-11T01:35:16;16.50;;;9.70;;
18076;SDS011;9165;45.714;11.362;2022-12-11T01:37:43;12.57;;;8.80;;
18076;SDS011;9165;45.714;11.362;2022-12-11T01:40:10;15.20;;;8.43;;
18076;SDS011;9165;45.714;11.362;2022-12-11T01:42:38;13.40;;;8.97;;
18076;SDS011;9165;45.714;11.362;2022-12-11T01:47:49;12.07;;;7.63;;
18076;SDS011;9165;45.714;11.362;2022-12-11T01:50:17;10.03;;;7.10;;
18076;SDS011;9165;45.714;11.362;2022-12-11T01:52:45;10.50;;;5.93;;
18076;SDS011;9165;45.714;11.362;2022-12-11T01:55:12;8.37;;;5.33;;
18076;SDS011;9165;45.714;11.362;2022-12-11T01:57:39;8.90;;;5.63;;
18076;SDS011;9165;45.714;11.362;2022-12-11T02:00:08;6.87;;;5.43;;
18076;SDS011;9165;45.714;11.362;2022-12-11T02:02:35;7.77;;;5.40;;
18076;SDS011;9165;45.714;11.362;2022-12-11T02:05:02;116.53;;;53.47;;
18076;SDS011;9165;45.714;11.362;2022-12-11T02:07:31;9.13;;;6.03;;
18076;SDS011;9165;45.714;11.362;2022-12-11T02:09:58;7.67;;;4.97;;
18076;SDS011;9165;45.714;11.362;2022-12-11T02:12:25;8.90;;;5.03;;
18076;SDS011;9165;45.714;11.362;2022-12-11T02:14:55;6.50;;;4.50;;
18076;SDS011;9165;45.714;11.362;2022-12-11T02:17:26;9.10;;;4.60;;
18076;SDS011;9165;45.714;11.362;2022-12-11T02:19:56;6.80;;;4.53;;
18076;SDS011;9165;45.714;11.362;2022-12-11T02:22:26;8.27;;;4.60;;
18076;SDS011;9165;45.714;11.362;2022-12-11T02:25:00;7.33;;;4.70;;
18076;SDS011;9165;45.714;11.362;2022-12-11T02:27:31;6.60;;;4.93;;
18076;SDS011;9165;45.714;11.362;2022-12-11T02:30:04;10.00;;;4.30;;
18076;SDS011;9165;45.714;11.362;2022-12-11T02:32:33;5.77;;;4.83;;
18076;SDS011;9165;45.714;11.362;2022-12-11T02:35:03;6.13;;;4.40;;
18076;SDS011;9165;45.714;11.362;2022-12-11T02:37:32;5.37;;;3.83;;
18076;SDS011;9165;45.714;11.362;2022-12-11T02:40:01;6.20;;;4.47;;
18076;SDS011;9165;45.714;11.362;2022-12-11T02:42:29;8.37;;;4.40;;
18076;SDS011;9165;45.714;11.362;2022-12-11T02:44:57;5.97;;;4.57;;
18076;SDS011;9165;45.714;11.362;2022-12-11T02:47:27;8.10;;;5.37;;
18076;SDS011;9165;45.714;11.362;2022-12-11T02:49:54;9.10;;;5.70;;
18076;SDS011;9165;45.714;11.362;2022-12-11T02:52:22;9.73;;;5.40;;
18076;SDS011;9165;45.714;11.362;2022-12-11T02:54:49;11.83;;;6.67;;
18076;SDS011;9165;45.714;11.362;2022-12-11T02:57:17;7.60;;;5.77;;
18076;SDS011;9165;45.714;11.362;2022-12-11T02:59:47;7.90;;;5.60;;
18076;SDS011;9165;45.714;11.362;2022-12-11T03:02:14;7.13;;;5.20;;
18076;SDS011;9165;45.714;11.362;2022-12-11T03:04:44;8.00;;;6.17;;
18076;SDS011;9165;45.714;11.362;2022-12-11T03:07:12;7.37;;;5.53;;
18076;SDS011;9165;45.714;11.362;2022-12-11T03:09:42;8.10;;;6.73;;
18076;SDS011;9165;45.714;11.362;2022-12-11T03:12:10;9.93;;;6.27;;
18076;SDS011;9165;45.714;11.362;2022-12-11T03:14:37;9.20;;;6.47;;
18076;SDS011;9165;45.714;11.362;2022-12-11T03:17:07;12.83;;;7.77;;
18076;SDS011;9165;45.714;11.362;2022-12-11T03:19:36;14.40;;;6.33;;
18076;SDS011;9165;45.714;11.362;2022-12-11T03:22:08;8.43;;;5.80;;
18076;SDS011;9165;45.714;11.362;2022-12-11T03:24:36;9.00;;;6.40;;
18076;SDS011;9165;45.714;11.362;2022-12-11T03:27:05;6.93;;;5.57;;
18076;SDS011;9165;45.714;11.362;2022-12-11T03:29:34;4.87;;;3.70;;
18076;SDS011;9165;45.714;11.362;2022-12-11T03:32:03;5.87;;;4.17;;
18076;SDS011;9165;45.714;11.362;2022-12-11T03:34:32;5.73;;;3.67;;
18076;SDS011;9165;45.714;11.362;2022-12-11T03:37:00;4.97;;;3.67;;
18076;SDS011;9165;45.714;11.362;2022-12-11T03:39:30;4.93;;;3.70;;
18076;SDS011;9165;45.714;11.362;2022-12-11T03:41:57;4.07;;;3.40;;
18076;SDS011;9165;45.714;11.362;2022-12-11T03:44:26;3.83;;;2.90;;
18076;SDS011;9165;45.714;11.362;2022-12-11T03:46:54;3.83;;;2.10;;
18076;SDS011;9165;45.714;11.362;2022-12-11T03:49:22;3.73;;;1.50;;
18076;SDS011;9165;45.714;11.362;2022-12-11T03:51:51;1.97;;;1.60;;
18076;SDS011;9165;45.714;11.362;2022-12-11T03:54:18;1.63;;;1.50;;
18076;SDS011;9165;45.714;11.362;2022-12-11T03:56:47;2.43;;;2.10;;
18076;SDS011;9165;45.714;11.362;2022-12-11T03:59:14;1.90;;;1.30;;
18076;SDS011;9165;45.714;11.362;2022-12-11T04:01:41;2.30;;;1.50;;
18076;SDS011;9165;45.714;11.362;2022-12-11T04:04:08;1.57;;;1.40;;
18076;SDS011;9165;45.714;11.362;2022-12-11T04:06:34;2.00;;;1.50;;
18076;SDS011;9165;45.714;11.362;2022-12-11T04:09:01;1.73;;;1.53;;
18076;SDS011;9165;45.714;11.362;2022-12-11T04:11:27;1.80;;;1.63;;
18076;SDS011;9165;45.714;11.362;2022-12-11T04:14:01;1.63;;;1.30;;
18076;SDS011;9165;45.714;11.362;2022-12-11T04:16:45;2.97;;;2.10;;
18076;SDS011;9165;45.714;11.362;2022-12-11T04:19:11;1.90;;;1.63;;
18076;SDS011;9165;45.714;11.362;2022-12-11T04:21:55;1.30;;;1.20;;
18076;SDS011;9165;45.714;11.362;2022-12-11T04:24:39;2.50;;;1.20;;
18076;SDS011;9165;45.714;11.362;2022-12-11T04:27:06;0.93;;;0.93;;
18076;SDS011;9165;45.714;11.362;2022-12-11T04:29:34;2.80;;;1.40;;
18076;SDS011;9165;45.714;11.362;2022-12-11T04:32:00;2.70;;;1.20;;
18076;SDS011;9165;45.714;11.362;2022-12-11T04:34:27;1.60;;;1.00;;
18076;SDS011;9165;45.714;11.362;2022-12-11T04:36:53;2.73;;;0.90;;
18076;SDS011;9165;45.714;11.362;2022-12-11T04:39:20;0.90;;;0.90;;
18076;SDS011;9165;45.714;11.362;2022-12-11T04:41:47;1.60;;;1.07;;
18076;SDS011;9165;45.714;11.362;2022-12-11T04:44:13;1.27;;;0.90;;
18076;SDS011;9165;45.714;11.362;2022-12-11T04:46:41;0.97;;;0.80;;
18076;SDS011;9165;45.714;11.362;2022-12-11T04:49:08;1.17;;;1.00;;
18076;SDS011;9165;45.714;11.362;2022-12-11T04:51:35;0.90;;;0.60;;
18076;SDS011;9165;45.714;11.362;2022-12-11T04:54:01;1.50;;;0.73;;
18076;SDS011;9165;45.714;11.362;2022-12-11T04:56:28;0.80;;;0.80;;
18076;SDS011;9165;45.714;11.362;2022-12-11T04:58:55;0.50;;;0.50;;
18076;SDS011;9165;45.714;11.362;2022-12-11T05:01:24;0.70;;;0.70;;
18076;SDS011;9165;45.714;11.362;2022-12-11T05:03:52;0.63;;;0.63;;
18076;SDS011;9165;45.714;11.362;2022-12-11T05:06:19;0.50;;;0.50;;
18076;SDS011;9165;45.714;11.362;2022-12-11T05:08:45;1.13;;;0.80;;
18076;SDS011;9165;45.714;11.362;2022-12-11T05:11:12;0.80;;;0.80;;
18076;SDS011;9165;45.714;11.362;2022-12-11T05:13:39;0.80;;;0.80;;
18076;SDS011;9165;45.714;11.362;2022-12-11T05:16:07;1.20;;;1.10;;
18076;SDS011;9165;45.714;11.362;2022-12-11T05:18:34;0.93;;;0.80;;
18076;SDS011;9165;45.714;11.362;2022-12-11T05:21:03;1.97;;;1.03;;
18076;SDS011;9165;45.714;11.362;2022-12-11T05:23:29;0.90;;;0.90;;
18076;SDS011;9165;45.714;11.362;2022-12-11T05:25:56;1.20;;;1.10;;
18076;SDS011;9165;45.714;11.362;2022-12-11T05:28:24;0.80;;;0.80;;
18076;SDS011;9165;45.714;11.362;2022-12-11T05:30:54;0.90;;;0.90;;
18076;SDS011;9165;45.714;11.362;2022-12-11T05:33:21;0.87;;;0.87;;
18076;SDS011;9165;45.714;11.362;2022-12-11T05:35:47;1.10;;;1.00;;
18076;SDS011;9165;45.714;11.362;2022-12-11T05:38:16;1.97;;;1.10;;
18076;SDS011;9165;45.714;11.362;2022-12-11T05:40:43;1.90;;;0.90;;
18076;SDS011;9165;45.714;11.362;2022-12-11T05:43:10;1.07;;;1.00;;
18076;SDS011;9165;45.714;11.362;2022-12-11T05:45:36;0.70;;;0.70;;
18076;SDS011;9165;45.714;11.362;2022-12-11T05:48:03;1.17;;;1.07;;
18076;SDS011;9165;45.714;11.362;2022-12-11T05:50:29;1.13;;;0.80;;
18076;SDS011;9165;45.714;11.362;2022-12-11T05:52:57;0.60;;;0.60;;
18076;SDS011;9165;45.714;11.362;2022-12-11T05:55:25;1.23;;;1.00;;
18076;SDS011;9165;45.714;11.362;2022-12-11T05:57:51;0.60;;;0.60;;
18076;SDS011;9165;45.714;11.362;2022-12-11T06:00:18;0.90;;;0.90;;
18076;SDS011;9165;45.714;11.362;2022-12-11T06:02:44;1.10;;;1.00;;
18076;SDS011;9165;45.714;11.362;2022-12-11T06:05:11;1.00;;;1.00;;
18076;SDS011;9165;45.714;11.362;2022-12-11T06:07:38;0.80;;;0.80;;
18076;SDS011;9165;45.714;11.362;2022-12-11T06:10:04;0.90;;;0.90;;
18076;SDS011;9165;45.714;11.362;2022-12-11T06:12:33;2.37;;;0.97;;
18076;SDS011;9165;45.714;11.362;2022-12-11T06:14:59;2.60;;;2.40;;
18076;SDS011;9165;45.714;11.362;2022-12-11T06:17:26;1.37;;;1.27;;
18076;SDS011;9165;45.714;11.362;2022-12-11T06:19:52;0.80;;;0.80;;
18076;SDS011;9165;45.714;11.362;2022-12-11T06:22:19;1.77;;;0.70;;
18076;SDS011;9165;45.714;11.362;2022-12-11T06:24:45;0.73;;;0.73;;
18076;SDS011;9165;45.714;11.362;2022-12-11T06:27:12;0.80;;;0.80;;
18076;SDS011;9165;45.714;11.362;2022-12-11T06:29:40;1.20;;;1.10;;
18076;SDS011;9165;45.714;11.362;2022-12-11T06:32:07;1.50;;;1.00;;
18076;SDS011;9165;45.714;11.362;2022-12-11T06:34:33;0.83;;;0.83;;
18076;SDS011;9165;45.714;11.362;2022-12-11T06:37:00;1.17;;;1.07;;
18076;SDS011;9165;45.714;11.362;2022-12-11T06:39:27;1.10;;;1.00;;
18076;SDS011;9165;45.714;11.362;2022-12-11T06:41:53;2.00;;;1.43;;
18076;SDS011;9165;45.714;11.362;2022-12-11T06:44:20;1.10;;;1.00;;
18076;SDS011;9165;45.714;11.362;2022-12-11T06:46:48;0.60;;;0.60;;
18076;SDS011;9165;45.714;11.362;2022-12-11T06:49:15;1.77;;;1.40;;
18076;SDS011;9165;45.714;11.362;2022-12-11T06:51:41;1.23;;;1.10;;
18076;SDS011;9165;45.714;11.362;2022-12-11T06:54:08;2.37;;;1.20;;
18076;SDS011;9165;45.714;11.362;2022-12-11T06:56:36;1.33;;;1.10;;
18076;SDS011;9165;45.714;11.362;2022-12-11T06:59:03;1.17;;;1.10;;
18076;SDS011;9165;45.714;11.362;2022-12-11T07:01:30;2.27;;;1.20;;
18076;SDS011;9165;45.714;11.362;2022-12-11T07:03:58;1.30;;;1.20;;
18076;SDS011;9165;45.714;11.362;2022-12-11T07:06:25;1.10;;;1.00;;
18076;SDS011;9165;45.714;11.362;2022-12-11T07:08:52;0.93;;;0.80;;
18076;SDS011;9165;45.714;11.362;2022-12-11T07:11:19;1.13;;;0.90;;
18076;SDS011;9165;45.714;11.362;2022-12-11T07:13:46;0.90;;;0.90;;
18076;SDS011;9165;45.714;11.362;2022-12-11T07:16:14;1.10;;;1.00;;
18076;SDS011;9165;45.714;11.362;2022-12-11T07:18:42;1.40;;;1.00;;
18076;SDS011;9165;45.714;11.362;2022-12-11T07:21:10;1.10;;;0.90;;
18076;SDS011;9165;45.714;11.362;2022-12-11T07:23:37;1.00;;;1.00;;
18076;SDS011;9165;45.714;11.362;2022-12-11T07:26:05;0.83;;;0.77;;
18076;SDS011;9165;45.714;11.362;2022-12-11T07:28:32;0.93;;;0.93;;
18076;SDS011;9165;45.714;11.362;2022-12-11T07:30:59;0.70;;;0.70;;
18076;SDS011;9165;45.714;11.362;2022-12-11T07:33:29;0.97;;;0.90;;
18076;SDS011;9165;45.714;11.362;2022-12-11T07:35:58;1.27;;;1.20;;
18076;SDS011;9165;45.714;11.362;2022-12-11T07:38:26;2.33;;;1.43;;
18076;SDS011;9165;45.714;11.362;2022-12-11T07:40:53;1.13;;;1.03;;
18076;SDS011;9165;45.714;11.362;2022-12-11T07:43:20;0.90;;;0.90;;
18076;SDS011;9165;45.714;11.362;2022-12-11T07:45:46;1.07;;;0.97;;
18076;SDS011;9165;45.714;11.362;2022-12-11T07:48:13;2.37;;;1.67;;
18076;SDS011;9165;45.714;11.362;2022-12-11T07:50:39;1.50;;;0.90;;
18076;SDS011;9165;45.714;11.362;2022-12-11T07:53:06;1.60;;;0.77;;
18076;SDS011;9165;45.714;11.362;2022-12-11T07:55:34;0.50;;;0.50;;
18076;SDS011;9165;45.714;11.362;2022-12-11T07:58:01;40.70;;;15.33;;
18076;SDS011;9165;45.714;11.362;2022-12-11T08:00:28;1.30;;;1.00;;
18076;SDS011;9165;45.714;11.362;2022-12-11T08:02:54;415.80;;;82.60;;
18076;SDS011;9165;45.714;11.362;2022-12-11T08:05:21;319.00;;;103.20;;
18076;SDS011;9165;45.714;11.362;2022-12-11T08:07:47;1.13;;;0.87;;
18076;SDS011;9165;45.714;11.362;2022-12-11T08:10:14;1.53;;;0.93;;
18076;SDS011;9165;45.714;11.362;2022-12-11T08:12:42;0.90;;;0.90;;
18076;SDS011;9165;45.714;11.362;2022-12-11T08:15:09;0.90;;;0.90;;
18076;SDS011;9165;45.714;11.362;2022-12-11T08:17:36;1.60;;;1.00;;
18076;SDS011;9165;45.714;11.362;2022-12-11T08:20:03;4.00;;;1.50;;
18076;SDS011;9165;45.714;11.362;2022-12-11T08:22:30;1.33;;;1.10;;
18076;SDS011;9165;45.714;11.362;2022-12-11T08:24:56;1.13;;;1.07;;
18076;SDS011;9165;45.714;11.362;2022-12-11T08:27:23;1.30;;;1.20;;
18076;SDS011;9165;45.714;11.362;2022-12-11T08:29:52;1.40;;;1.30;;
18076;SDS011;9165;45.714;11.362;2022-12-11T08:32:18;3.20;;;2.10;;
18076;SDS011;9165;45.714;11.362;2022-12-11T08:34:45;1.10;;;1.00;;
18076;SDS011;9165;45.714;11.362;2022-12-11T08:37:12;1.83;;;1.40;;
18076;SDS011;9165;45.714;11.362;2022-12-11T08:39:38;2.00;;;1.50;;
18076;SDS011;9165;45.714;11.362;2022-12-11T08:42:07;1.53;;;1.43;;
18076;SDS011;9165;45.714;11.362;2022-12-11T08:44:34;1.67;;;1.40;;
18076;SDS011;9165;45.714;11.362;2022-12-11T08:47:02;2.97;;;1.80;;
18076;SDS011;9165;45.714;11.362;2022-12-11T08:49:28;2.60;;;2.20;;
18076;SDS011;9165;45.714;11.362;2022-12-11T08:51:55;1.93;;;1.60;;
18076;SDS011;9165;45.714;11.362;2022-12-11T08:54:21;2.07;;;1.63;;
18076;SDS011;9165;45.714;11.362;2022-12-11T08:56:48;2.10;;;1.60;;
18076;SDS011;9165;45.714;11.362;2022-12-11T08:59:15;1.87;;;1.37;;
18076;SDS011;9165;45.714;11.362;2022-12-11T09:01:42;2.07;;;1.73;;
18076;SDS011;9165;45.714;11.362;2022-12-11T09:04:11;3.03;;;1.87;;
18076;SDS011;9165;45.714;11.362;2022-12-11T09:06:37;2.03;;;1.80;;
18076;SDS011;9165;45.714;11.362;2022-12-11T09:09:04;2.00;;;1.70;;
18076;SDS011;9165;45.714;11.362;2022-12-11T09:11:32;1.30;;;1.20;;
18076;SDS011;9165;45.714;11.362;2022-12-11T09:13:59;0.67;;;0.67;;
18076;SDS011;9165;45.714;11.362;2022-12-11T09:16:26;3.47;;;2.40;;
18076;SDS011;9165;45.714;11.362;2022-12-11T09:18:54;1.40;;;1.30;;
18076;SDS011;9165;45.714;11.362;2022-12-11T09:21:23;3.93;;;1.90;;
18076;SDS011;9165;45.714;11.362;2022-12-11T09:23:51;3.50;;;1.57;;
18076;SDS011;9165;45.714;11.362;2022-12-11T09:26:18;1.67;;;1.57;;
18076;SDS011;9165;45.714;11.362;2022-12-11T09:28:45;3.67;;;1.80;;
18076;SDS011;9165;45.714;11.362;2022-12-11T09:31:12;2.53;;;1.70;;
18076;SDS011;9165;45.714;11.362;2022-12-11T09:33:39;1.80;;;1.70;;
18076;SDS011;9165;45.714;11.362;2022-12-11T09:36:06;3.60;;;1.83;;
18076;SDS011;9165;45.714;11.362;2022-12-11T09:38:35;2.27;;;1.40;;
18076;SDS011;9165;45.714;11.362;2022-12-11T09:41:02;1.83;;;1.70;;
18076;SDS011;9165;45.714;11.362;2022-12-11T09:43:41;1.63;;;1.53;;
18076;SDS011;9165;45.714;11.362;2022-12-11T09:46:12;2.53;;;2.00;;
18076;SDS011;9165;45.714;11.362;2022-12-11T09:48:39;2.47;;;1.97;;
18076;SDS011;9165;45.714;11.362;2022-12-11T09:51:11;1.60;;;1.50;;
18076;SDS011;9165;45.714;11.362;2022-12-11T09:53:41;2.53;;;2.30;;
18076;SDS011;9165;45.714;11.362;2022-12-11T09:56:11;3.37;;;2.27;;
18076;SDS011;9165;45.714;11.362;2022-12-11T09:58:43;4.13;;;2.23;;
18076;SDS011;9165;45.714;11.362;2022-12-11T10:01:16;6.43;;;3.73;;
18076;SDS011;9165;45.714;11.362;2022-12-11T10:03:55;15.00;;;8.47;;
18076;SDS011;9165;45.714;11.362;2022-12-11T10:06:29;8.40;;;4.50;;
18076;SDS011;9165;45.714;11.362;2022-12-11T10:09:02;3.50;;;2.87;;
18076;SDS011;9165;45.714;11.362;2022-12-11T10:11:33;3.00;;;1.97;;
18076;SDS011;9165;45.714;11.362;2022-12-11T10:14:05;2.20;;;2.00;;
18076;SDS011;9165;45.714;11.362;2022-12-11T10:16:38;2.57;;;2.17;;
18076;SDS011;9165;45.714;11.362;2022-12-11T10:19:07;3.57;;;2.37;;
18076;SDS011;9165;45.714;11.362;2022-12-11T10:21:38;3.07;;;1.93;;
18076;SDS011;9165;45.714;11.362;2022-12-11T10:24:09;1.90;;;1.70;;
18076;SDS011;9165;45.714;11.362;2022-12-11T10:26:37;4.30;;;3.30;;
18076;SDS011;9165;45.714;11.362;2022-12-11T10:29:05;7.10;;;2.27;;
18076;SDS011;9165;45.714;11.362;2022-12-11T10:31:36;2.33;;;1.83;;
18076;SDS011;9165;45.714;11.362;2022-12-11T10:34:08;2.40;;;1.77;;
18076;SDS011;9165;45.714;11.362;2022-12-11T10:36:37;1.80;;;1.53;;
18076;SDS011;9165;45.714;11.362;2022-12-11T10:39:11;2.40;;;1.80;;
18076;SDS011;9165;45.714;11.362;2022-12-11T10:41:38;3.07;;;1.90;;
18076;SDS011;9165;45.714;11.362;2022-12-11T10:44:15;1.60;;;1.47;;
18076;SDS011;9165;45.714;11.362;2022-12-11T10:46:42;2.17;;;1.73;;
18076;SDS011;9165;45.714;11.362;2022-12-11T10:49:19;2.43;;;1.87;;
18076;SDS011;9165;45.714;11.362;2022-12-11T10:51:46;2.30;;;1.97;;
18076;SDS011;9165;45.714;11.362;2022-12-11T10:54:17;3.23;;;2.43;;
18076;SDS011;9165;45.714;11.362;2022-12-11T10:56:51;166.10;;;73.10;;
18076;SDS011;9165;45.714;11.362;2022-12-11T10:59:20;325.07;;;70.93;;
18076;SDS011;9165;45.714;11.362;2022-12-11T11:01:48;584.67;;;110.53;;
18076;SDS011;9165;45.714;11.362;2022-12-11T11:04:18;431.50;;;76.80;;
18076;SDS011;9165;45.714;11.362;2022-12-11T11:06:45;317.97;;;92.37;;
18076;SDS011;9165;45.714;11.362;2022-12-11T11:09:28;197.30;;;90.50;;
18076;SDS011;9165;45.714;11.362;2022-12-11T11:11:55;239.93;;;89.93;;
18076;SDS011;9165;45.714;11.362;2022-12-11T11:14:21;394.80;;;103.90;;
18076;SDS011;9165;45.714;11.362;2022-12-11T11:16:48;432.30;;;106.63;;
18076;SDS011;9165;45.714;11.362;2022-12-11T11:19:17;336.37;;;89.33;;
18076;SDS011;9165;45.714;11.362;2022-12-11T11:21:46;505.27;;;105.43;;
18076;SDS011;9165;45.714;11.362;2022-12-11T11:24:18;570.80;;;111.93;;
18076;SDS011;9165;45.714;11.362;2022-12-11T11:26:50;623.73;;;115.33;;
18076;SDS011;9165;45.714;11.362;2022-12-11T11:29:21;621.53;;;117.73;;
18076;SDS011;9165;45.714;11.362;2022-12-11T11:31:49;600.75;;;111.97;;
18076;SDS011;9165;45.714;11.362;2022-12-11T11:34:17;582.22;;;109.53;;
18076;SDS011;9165;45.714;11.362;2022-12-11T11:36:53;299.15;;;65.97;;
18076;SDS011;9165;45.714;11.362;2022-12-11T11:39:22;604.85;;;132.75;;
18076;SDS011;9165;45.714;11.362;2022-12-11T11:41:55;142.95;;;29.23;;
18076;SDS011;9165;45.714;11.362;2022-12-11T11:44:25;301.67;;;65.05;;
18076;SDS011;9165;45.714;11.362;2022-12-11T11:46:54;534.70;;;104.55;;
18076;SDS011;9165;45.714;11.362;2022-12-11T11:49:23;278.35;;;61.42;;
18076;SDS011;9165;45.714;11.362;2022-12-11T11:51:54;291.33;;;94.93;;
18076;SDS011;9165;45.714;11.362;2022-12-11T11:54:26;27.10;;;12.73;;
18076;SDS011;9165;45.714;11.362;2022-12-11T11:56:56;2.90;;;2.00;;
18076;SDS011;9165;45.714;11.362;2022-12-11T11:59:25;2.70;;;1.73;;
18076;SDS011;9165;45.714;11.362;2022-12-11T12:01:54;2.87;;;2.10;;
18076;SDS011;9165;45.714;11.362;2022-12-11T12:04:21;2.70;;;1.70;;
18076;SDS011;9165;45.714;11.362;2022-12-11T12:07:06;2.03;;;1.67;;
18076;SDS011;9165;45.714;11.362;2022-12-11T12:09:37;2.30;;;2.00;;
18076;SDS011;9165;45.714;11.362;2022-12-11T12:12:11;3.37;;;2.20;;
18076;SDS011;9165;45.714;11.362;2022-12-11T12:14:44;2.33;;;1.83;;
18076;SDS011;9165;45.714;11.362;2022-12-11T12:17:17;2.63;;;2.33;;
18076;SDS011;9165;45.714;11.362;2022-12-11T12:19:49;2.00;;;1.80;;
18076;SDS011;9165;45.714;11.362;2022-12-11T12:22:20;3.37;;;2.40;;
18076;SDS011;9165;45.714;11.362;2022-12-11T12:24:55;1.83;;;1.73;;
18076;SDS011;9165;45.714;11.362;2022-12-11T12:27:28;3.27;;;2.30;;
18076;SDS011;9165;45.714;11.362;2022-12-11T12:30:00;2.77;;;1.97;;
18076;SDS011;9165;45.714;11.362;2022-12-11T12:32:29;3.33;;;1.73;;
18076;SDS011;9165;45.714;11.362;2022-12-11T12:35:03;1.40;;;1.30;;
18076;SDS011;9165;45.714;11.362;2022-12-11T12:37:36;3.50;;;2.27;;
18076;SDS011;9165;45.714;11.362;2022-12-11T12:40:13;3.07;;;2.10;;
18076;SDS011;9165;45.714;11.362;2022-12-11T12:42:44;2.73;;;2.10;;
18076;SDS011;9165;45.714;11.362;2022-12-11T12:45:16;2.83;;;2.10;;
18076;SDS011;9165;45.714;11.362;2022-12-11T12:47:48;2.30;;;2.07;;
18076;SDS011;9165;45.714;11.362;2022-12-11T12:50:18;2.77;;;1.73;;
18076;SDS011;9165;45.714;11.362;2022-12-11T12:52:45;2.73;;;2.30;;
18076;SDS011;9165;45.714;11.362;2022-12-11T12:55:16;2.93;;;2.10;;
18076;SDS011;9165;45.714;11.362;2022-12-11T12:57:49;3.80;;;2.30;;
18076;SDS011;9165;45.714;11.362;2022-12-11T13:00:26;3.03;;;2.00;;
18076;SDS011;9165;45.714;11.362;2022-12-11T13:02:53;3.50;;;2.50;;
18076;SDS011;9165;45.714;11.362;2022-12-11T13:05:21;4.97;;;3.10;;
18076;SDS011;9165;45.714;11.362;2022-12-11T13:07:49;5.47;;;3.10;;
18076;SDS011;9165;45.714;11.362;2022-12-11T13:10:24;4.63;;;2.57;;
18076;SDS011;9165;45.714;11.362;2022-12-11T13:12:54;2.20;;;2.00;;
18076;SDS011;9165;45.714;11.362;2022-12-11T13:15:28;3.17;;;2.20;;
18076;SDS011;9165;45.714;11.362;2022-12-11T13:17:55;3.63;;;2.63;;
18076;SDS011;9165;45.714;11.362;2022-12-11T13:20:23;3.03;;;2.50;;
18076;SDS011;9165;45.714;11.362;2022-12-11T13:22:53;2.80;;;2.30;;
18076;SDS011;9165;45.714;11.362;2022-12-11T13:25:22;4.10;;;2.90;;
18076;SDS011;9165;45.714;11.362;2022-12-11T13:27:49;6.67;;;3.87;;
18076;SDS011;9165;45.714;11.362;2022-12-11T13:30:21;8.67;;;5.53;;
18076;SDS011;9165;45.714;11.362;2022-12-11T13:32:50;7.53;;;3.80;;
18076;SDS011;9165;45.714;11.362;2022-12-11T13:35:19;6.23;;;3.50;;
18076;SDS011;9165;45.714;11.362;2022-12-11T13:37:49;9.17;;;3.30;;
18076;SDS011;9165;45.714;11.362;2022-12-11T13:40:19;5.77;;;3.27;;
18076;SDS011;9165;45.714;11.362;2022-12-11T13:42:47;5.77;;;3.70;;
18076;SDS011;9165;45.714;11.362;2022-12-11T13:45:17;6.13;;;3.57;;
18076;SDS011;9165;45.714;11.362;2022-12-11T13:47:45;6.00;;;3.43;;
18076;SDS011;9165;45.714;11.362;2022-12-11T13:50:13;7.07;;;3.57;;
18076;SDS011;9165;45.714;11.362;2022-12-11T13:52:50;4.70;;;2.70;;
18076;SDS011;9165;45.714;11.362;2022-12-11T13:55:20;5.43;;;3.33;;
18076;SDS011;9165;45.714;11.362;2022-12-11T13:57:48;9.23;;;4.53;;
18076;SDS011;9165;45.714;11.362;2022-12-11T14:00:18;4.90;;;3.20;;
18076;SDS011;9165;45.714;11.362;2022-12-11T14:02:47;6.73;;;3.30;;
18076;SDS011;9165;45.714;11.362;2022-12-11T14:05:14;5.27;;;3.90;;
18076;SDS011;9165;45.714;11.362;2022-12-11T14:07:41;6.87;;;3.90;;
18076;SDS011;9165;45.714;11.362;2022-12-11T14:10:13;5.40;;;2.83;;
18076;SDS011;9165;45.714;11.362;2022-12-11T14:12:42;6.40;;;5.17;;
18076;SDS011;9165;45.714;11.362;2022-12-11T14:15:10;8.83;;;4.63;;
18076;SDS011;9165;45.714;11.362;2022-12-11T14:17:38;8.57;;;5.77;;
18076;SDS011;9165;45.714;11.362;2022-12-11T14:20:14;6.20;;;4.20;;
18076;SDS011;9165;45.714;11.362;2022-12-11T14:22:42;5.17;;;3.90;;
18076;SDS011;9165;45.714;11.362;2022-12-11T14:25:16;6.40;;;5.33;;
18076;SDS011;9165;45.714;11.362;2022-12-11T14:27:46;8.83;;;4.93;;
18076;SDS011;9165;45.714;11.362;2022-12-11T14:30:19;7.20;;;4.77;;
18076;SDS011;9165;45.714;11.362;2022-12-11T14:32:45;7.23;;;4.47;;
18076;SDS011;9165;45.714;11.362;2022-12-11T14:35:19;7.87;;;3.93;;
18076;SDS011;9165;45.714;11.362;2022-12-11T14:37:47;8.50;;;4.10;;
18076;SDS011;9165;45.714;11.362;2022-12-11T14:40:15;6.57;;;4.47;;
18076;SDS011;9165;45.714;11.362;2022-12-11T14:42:42;6.83;;;4.80;;
18076;SDS011;9165;45.714;11.362;2022-12-11T14:45:15;10.43;;;6.70;;
18076;SDS011;9165;45.714;11.362;2022-12-11T14:47:43;6.57;;;4.43;;
18076;SDS011;9165;45.714;11.362;2022-12-11T14:50:11;8.03;;;4.33;;
18076;SDS011;9165;45.714;11.362;2022-12-11T14:52:41;7.60;;;5.10;;
18076;SDS011;9165;45.714;11.362;2022-12-11T14:55:11;9.37;;;5.70;;